Time;durP1;ratioP1;P1;durP2;ratioP2;P2;SDS_P1;SDS_P2;PMS_P1;PMS_P2;Temp;Humidity;BMP_temperature;BMP_pressure;BME280_temperature;BME280_humidity;BME280_pressure;Samples;Min_cycle;Max_cycle;Signal;HPM_P1;HPM_P2
2023/05/09 00:00:10;;;;;;;;;;;14.30;99.90;;;;;;5056225;28;20007;-95
2023/05/09 00:02:37;;;;;;;;;;;14.30;99.90;;;;;;5045047;28;19924;-94
2023/05/09 00:05:03;;;;;;;;;;;14.30;99.90;;;;;;5055479;28;19924;-95
2023/05/09 00:07:30;;;;;;;;;;;14.30;99.90;;;;;;5053307;28;20411;-94
2023/05/09 00:09:56;;;;;;;;;;;14.30;99.90;;;;;;5064622;28;20016;-96
2023/05/09 00:12:22;;;;;;;;;;;14.30;99.90;;;;;;5046785;28;19928;-94
2023/05/09 00:14:49;;;;;;;;;;;14.30;99.90;;;;;;5045329;28;19929;-95
2023/05/09 00:17:17;;;;;;;;;;;14.20;99.90;;;;;;5079643;28;19930;-94
2023/05/09 00:19:44;;;;;;;;;;;14.30;99.90;;;;;;5047976;28;19982;-96
2023/05/09 00:22:11;;;;;;;;;;;14.20;99.90;;;;;;5078017;28;19929;-94
2023/05/09 00:24:37;;;;;;;;;;;14.30;99.90;;;;;;5079510;28;19964;-94
2023/05/09 00:27:03;;;;;;;;;;;14.20;99.90;;;;;;5064057;28;19932;-94
2023/05/09 00:29:29;;;;;;;;;;;14.20;99.90;;;;;;5063751;28;19924;-96
2023/05/09 00:31:54;;;;;;;;;;;14.30;99.90;;;;;;5064645;28;19928;-95
2023/05/09 00:34:20;;;;;;;;;;;14.20;99.90;;;;;;5078029;28;19925;-94
2023/05/09 00:36:46;;;;;;;;;;;14.20;99.90;;;;;;5065404;28;19924;-94
2023/05/09 00:39:12;;;;;;;;;;;14.20;99.90;;;;;;5058310;28;19984;-93
2023/05/09 00:41:37;;;;;;;;;;;14.20;99.90;;;;;;5076756;28;19931;-94
2023/05/09 00:44:03;;;;;;;;;;;14.20;99.90;;;;;;5056201;28;19924;-95
2023/05/09 00:46:29;;;;;;;;;;;14.20;99.90;;;;;;5046842;28;19932;-95
2023/05/09 00:48:55;;;;;;;;;;;14.30;99.90;;;;;;5062396;28;19956;-93
2023/05/09 00:51:21;;;;;;;;;;;14.30;99.90;;;;;;5050183;28;19935;-95
2023/05/09 00:53:47;;;;;;;;;;;14.20;99.90;;;;;;5064895;28;19967;-95
2023/05/09 00:56:13;;;;;;;;;;;14.20;99.90;;;;;;5047009;28;19924;-94
2023/05/09 00:58:39;;;;;;;;;;;14.20;99.90;;;;;;5052909;28;19986;-94
2023/05/09 01:01:05;;;;;;;;;;;14.20;99.90;;;;;;5062555;28;19991;-94
2023/05/09 01:03:31;;;;;;;;;;;14.20;99.90;;;;;;5097886;28;19924;-94
2023/05/09 01:06:11;;;;;;;;;;;14.10;99.90;;;;;;5048179;28;20380;-95
2023/05/09 01:08:37;;;;;;;;;;;14.10;99.90;;;;;;5061036;28;19943;-93
2023/05/09 01:11:09;;;;;;;;;;;14.10;99.90;;;;;;5077261;28;19924;-94
2023/05/09 01:13:40;;;;;;;;;;;14.10;99.90;;;;;;5073095;28;19931;-94
2023/05/09 01:16:15;;;;;;;;;;;14.10;99.90;;;;;;5051411;28;19928;-93
2023/05/09 01:18:59;;;;;;;;;;;14.10;99.90;;;;;;5077774;28;19999;-94
2023/05/09 01:21:28;;;;;;;;;;;14.10;99.90;;;;;;5069964;28;20067;-95
2023/05/09 01:24:21;;;;;;;;;;;14.10;99.90;;;;;;5060930;28;19924;-94
2023/05/09 01:26:53;;;;;;;;;;;14.10;99.90;;;;;;5071784;28;19939;-95
2023/05/09 01:29:21;;;;;;;;;;;14.10;99.90;;;;;;5075346;28;19924;-93
2023/05/09 01:31:50;;;;;;;;;;;14.10;99.90;;;;;;5069922;28;19928;-94
2023/05/09 01:34:16;;;;;;;;;;;14.10;99.90;;;;;;5045739;28;19935;-94
2023/05/09 01:36:43;;;;;;;;;;;14.10;99.90;;;;;;5057301;28;20009;-94
2023/05/09 01:39:12;;;;;;;;;;;14.10;99.90;;;;;;5091231;28;19924;-94
2023/05/09 01:41:38;;;;;;;;;;;14.10;99.90;;;;;;5074367;28;19928;-93
2023/05/09 01:44:05;;;;;;;;;;;14.10;99.90;;;;;;5043325;28;20281;-94
2023/05/09 01:46:31;;;;;;;;;;;14.10;99.90;;;;;;5057798;28;19946;-95
2023/05/09 01:48:57;;;;;;;;;;;14.10;99.90;;;;;;5045783;28;19988;-94
2023/05/09 01:51:24;;;;;;;;;;;14.10;99.90;;;;;;5076208;28;20015;-94
2023/05/09 01:53:50;;;;;;;;;;;14.10;99.90;;;;;;5058892;28;19924;-94
2023/05/09 01:56:17;;;;;;;;;;;14.10;99.90;;;;;;5045088;28;19936;-95
2023/05/09 01:58:47;;;;;;;;;;;14.10;99.90;;;;;;5067931;28;19946;-94
2023/05/09 02:01:13;;;;;;;;;;;14.10;99.90;;;;;;5060782;28;19927;-95
2023/05/09 02:03:39;;;;;;;;;;;14.10;99.90;;;;;;5072868;28;19984;-96
2023/05/09 02:06:05;;;;;;;;;;;14.10;99.90;;;;;;5059887;28;19920;-95
2023/05/09 02:08:31;;;;;;;;;;;14.10;99.90;;;;;;5050870;28;19932;-94
2023/05/09 02:10:57;;;;;;;;;;;14.10;99.90;;;;;;5056935;28;19924;-95
2023/05/09 02:13:23;;;;;;;;;;;14.00;99.90;;;;;;5074697;28;19947;-95
2023/05/09 02:15:50;;;;;;;;;;;14.00;99.90;;;;;;5059782;28;20511;-96
2023/05/09 02:18:19;;;;;;;;;;;14.00;99.90;;;;;;5063356;28;19944;-94
2023/05/09 02:20:47;;;;;;;;;;;14.00;99.90;;;;;;5078215;28;19928;-95
2023/05/09 02:23:14;;;;;;;;;;;14.00;99.90;;;;;;5042569;28;19960;-94
2023/05/09 02:25:40;;;;;;;;;;;14.00;99.90;;;;;;5039745;28;20393;-94
2023/05/09 02:28:06;;;;;;;;;;;14.00;99.90;;;;;;5056068;28;19925;-95
2023/05/09 02:30:34;;;;;;;;;;;13.90;99.90;;;;;;5027619;28;20437;-95
2023/05/09 02:33:02;;;;;;;;;;;13.90;99.90;;;;;;5069206;28;19924;-94
2023/05/09 02:35:28;;;;;;;;;;;14.00;99.90;;;;;;5055718;28;19929;-94
2023/05/09 02:37:54;;;;;;;;;;;14.00;99.90;;;;;;5045493;28;19992;-92
2023/05/09 02:40:20;;;;;;;;;;;14.00;99.90;;;;;;5027983;28;19935;-94
2023/05/09 02:42:46;;;;;;;;;;;14.00;99.90;;;;;;5041787;28;19970;-95
2023/05/09 02:45:12;;;;;;;;;;;14.00;99.90;;;;;;5045185;28;20011;-94
2023/05/09 02:47:37;;;;;;;;;;;14.00;99.90;;;;;;5039679;28;20462;-96
2023/05/09 02:50:04;;;;;;;;;;;14.00;99.90;;;;;;5048562;28;20377;-95
2023/05/09 02:52:29;;;;;;;;;;;14.00;99.90;;;;;;5051475;28;20113;-95
2023/05/09 02:54:55;;;;;;;;;;;14.00;99.90;;;;;;5031826;28;19947;-94
2023/05/09 02:57:21;;;;;;;;;;;14.00;99.90;;;;;;5027641;28;19996;-95
2023/05/09 02:59:47;;;;;;;;;;;14.00;99.90;;;;;;5048019;28;20239;-94
2023/05/09 03:02:12;;;;;;;;;;;14.00;99.90;;;;;;5031327;28;19925;-94
2023/05/09 03:04:38;;;;;;;;;;;14.00;99.90;;;;;;5042722;28;19924;-93
2023/05/09 03:07:04;;;;;;;;;;;14.00;99.90;;;;;;5043940;28;19980;-94
2023/05/09 03:09:30;;;;;;;;;;;14.10;99.90;;;;;;5063542;28;20003;-95
2023/05/09 03:11:56;;;;;;;;;;;14.10;99.90;;;;;;5040217;28;19931;-93
2023/05/09 03:14:22;;;;;;;;;;;14.10;99.90;;;;;;5048393;28;19987;-94
2023/05/09 03:16:47;;;;;;;;;;;14.10;99.90;;;;;;5054124;28;19935;-94
2023/05/09 03:19:13;;;;;;;;;;;14.10;99.90;;;;;;5045711;28;19977;-94
2023/05/09 03:21:42;;;;;;;;;;;14.10;99.90;;;;;;5073720;28;19921;-93
2023/05/09 03:24:09;;;;;;;;;;;14.10;99.90;;;;;;5063691;28;19920;-94
2023/05/09 03:26:34;;;;;;;;;;;14.10;99.90;;;;;;5053464;28;20343;-93
2023/05/09 03:29:00;;;;;;;;;;;14.10;99.90;;;;;;5047375;28;19924;-94
2023/05/09 03:31:26;;;;;;;;;;;14.10;99.90;;;;;;5036149;28;20035;-94
2023/05/09 03:33:52;;;;;;;;;;;14.10;99.90;;;;;;5046039;28;20384;-94
2023/05/09 03:36:17;;;;;;;;;;;14.10;99.90;;;;;;5065281;28;20282;-94
2023/05/09 03:38:44;;;;;;;;;;;14.10;99.90;;;;;;5063507;28;20268;-94
2023/05/09 03:41:11;;;;;;;;;;;14.10;99.90;;;;;;5052192;28;19968;-95
2023/05/09 03:43:37;;;;;;;;;;;14.10;99.90;;;;;;5076128;28;20315;-94
2023/05/09 03:46:02;;;;;;;;;;;14.10;99.90;;;;;;5047978;28;19928;-93
2023/05/09 03:48:28;;;;;;;;;;;14.10;99.90;;;;;;5073682;28;19925;-94
2023/05/09 03:50:54;;;;;;;;;;;14.10;99.90;;;;;;5057008;28;19966;-93
2023/05/09 03:53:19;;;;;;;;;;;14.10;99.90;;;;;;5046010;28;19932;-93
2023/05/09 03:55:45;;;;;;;;;;;14.10;99.90;;;;;;5043941;28;19925;-94
2023/05/09 03:58:11;;;;;;;;;;;14.10;99.90;;;;;;5042600;28;19925;-95
2023/05/09 04:00:37;;;;;;;;;;;14.10;99.90;;;;;;5046442;28;20396;-94
2023/05/09 04:03:02;;;;;;;;;;;14.10;99.90;;;;;;5059204;28;19972;-94
2023/05/09 04:05:28;;;;;;;;;;;14.00;99.90;;;;;;5051110;28;19924;-94
2023/05/09 04:07:54;;;;;;;;;;;14.00;99.90;;;;;;5039925;28;19986;-94
2023/05/09 04:10:20;;;;;;;;;;;14.00;99.90;;;;;;5043682;28;20314;-93
2023/05/09 04:12:45;;;;;;;;;;;14.00;99.90;;;;;;5055128;28;19975;-93
2023/05/09 04:15:11;;;;;;;;;;;14.10;99.90;;;;;;5079175;28;19929;-94
2023/05/09 04:17:36;;;;;;;;;;;14.10;99.90;;;;;;5043351;28;19924;-93
2023/05/09 04:20:02;;;;;;;;;;;14.10;99.90;;;;;;5065190;28;20053;-93
2023/05/09 04:22:28;;;;;;;;;;;14.10;99.90;;;;;;5046269;28;19963;-93
2023/05/09 04:24:53;;;;;;;;;;;14.10;99.90;;;;;;5039790;28;19924;-93
2023/05/09 04:27:19;;;;;;;;;;;14.10;99.90;;;;;;5063416;28;20021;-93
2023/05/09 04:29:45;;;;;;;;;;;14.10;99.90;;;;;;5059706;28;19986;-92
2023/05/09 04:32:11;;;;;;;;;;;14.20;99.90;;;;;;5044990;28;20309;-93
2023/05/09 04:34:36;;;;;;;;;;;14.20;99.90;;;;;;5052249;28;19924;-94
2023/05/09 04:37:02;;;;;;;;;;;14.20;99.90;;;;;;5062703;28;20363;-92
2023/05/09 04:39:29;;;;;;;;;;;14.20;99.90;;;;;;5067703;28;19936;-94
2023/05/09 04:41:54;;;;;;;;;;;14.20;99.90;;;;;;5074902;28;19929;-95
2023/05/09 04:44:20;;;;;;;;;;;14.20;99.90;;;;;;5048315;28;19925;-95
2023/05/09 04:46:46;;;;;;;;;;;14.20;99.90;;;;;;5044490;28;19931;-95
2023/05/09 04:49:11;;;;;;;;;;;14.20;99.90;;;;;;5060266;28;19928;-94
2023/05/09 04:51:37;;;;;;;;;;;14.30;99.90;;;;;;5048141;28;20361;-94
2023/05/09 04:54:03;;;;;;;;;;;14.30;99.90;;;;;;5046202;28;19935;-93
2023/05/09 04:56:29;;;;;;;;;;;14.30;99.90;;;;;;5042002;28;19936;-95
2023/05/09 04:58:54;;;;;;;;;;;14.40;99.90;;;;;;5060322;28;19925;-95
2023/05/09 05:01:20;;;;;;;;;;;14.40;99.90;;;;;;5041419;28;20308;-95
2023/05/09 05:03:46;;;;;;;;;;;14.40;99.90;;;;;;5046111;28;19979;-93
2023/05/09 05:06:11;;;;;;;;;;;14.50;99.90;;;;;;5043238;28;19924;-93
2023/05/09 05:08:37;;;;;;;;;;;14.50;99.90;;;;;;5044191;28;19929;-96
2023/05/09 05:11:02;;;;;;;;;;;14.50;99.90;;;;;;5064183;28;19924;-94
2023/05/09 05:13:28;;;;;;;;;;;14.60;99.90;;;;;;5042503;28;19925;-93
2023/05/09 05:15:55;;;;;;;;;;;14.70;99.90;;;;;;5057532;28;19931;-94
2023/05/09 05:18:22;;;;;;;;;;;14.70;99.90;;;;;;5058548;28;19925;-95
2023/05/09 05:20:47;;;;;;;;;;;14.70;99.90;;;;;;5058469;28;19936;-94
2023/05/09 05:23:13;;;;;;;;;;;14.70;99.90;;;;;;5060711;28;20404;-93
2023/05/09 05:25:39;;;;;;;;;;;14.80;99.90;;;;;;5079372;28;20512;-95
2023/05/09 05:28:04;;;;;;;;;;;14.80;99.90;;;;;;5044566;28;19932;-94
2023/05/09 05:30:30;;;;;;;;;;;14.80;99.90;;;;;;5059341;28;19924;-93
2023/05/09 05:32:56;;;;;;;;;;;14.80;99.90;;;;;;5079068;28;19932;-93
2023/05/09 05:35:23;;;;;;;;;;;14.80;99.90;;;;;;5045157;28;19928;-95
2023/05/09 05:37:49;;;;;;;;;;;14.80;99.90;;;;;;5061380;28;19928;-93
2023/05/09 05:40:15;;;;;;;;;;;14.80;99.90;;;;;;5079414;28;20360;-95
2023/05/09 05:42:41;;;;;;;;;;;14.80;99.90;;;;;;5045323;28;20595;-95
2023/05/09 05:45:10;;;;;;;;;;;14.90;99.90;;;;;;5092947;28;20011;-95
2023/05/09 05:47:36;;;;;;;;;;;14.90;99.90;;;;;;5059919;28;19925;-93
2023/05/09 05:50:10;;;;;;;;;;;14.90;99.90;;;;;;5060894;28;19929;-95
2023/05/09 05:52:40;;;;;;;;;;;14.90;99.90;;;;;;5079747;28;19954;-94
2023/05/09 05:55:06;;;;;;;;;;;14.90;99.90;;;;;;5057773;28;19925;-94
2023/05/09 05:57:38;;;;;;;;;;;14.90;99.90;;;;;;5073722;28;20292;-93
2023/05/09 06:00:09;;;;;;;;;;;14.90;99.90;;;;;;5065884;28;19925;-94
2023/05/09 06:02:34;;;;;;;;;;;14.90;99.90;;;;;;5064734;28;19921;-94
2023/05/09 06:05:00;;;;;;;;;;;14.90;99.90;;;;;;5073159;28;19920;-93
2023/05/09 06:07:26;;;;;;;;;;;15.00;99.90;;;;;;5067864;28;19951;-95
2023/05/09 06:09:51;;;;;;;;;;;15.00;99.90;;;;;;5069151;28;19924;-92
2023/05/09 06:12:17;;;;;;;;;;;15.00;99.90;;;;;;5044839;28;20024;-93
2023/05/09 06:14:43;;;;;;;;;;;15.10;99.90;;;;;;5044694;28;19975;-94
2023/05/09 06:17:08;;;;;;;;;;;15.10;99.90;;;;;;5045123;28;19928;-94
2023/05/09 06:19:34;;;;;;;;;;;15.10;99.90;;;;;;5043659;28;19935;-93
2023/05/09 06:22:00;;;;;;;;;;;15.20;99.90;;;;;;5043852;28;19929;-94
2023/05/09 06:24:27;;;;;;;;;;;15.20;99.90;;;;;;5044273;28;21807;-94
2023/05/09 06:26:53;;;;;;;;;;;15.40;99.90;;;;;;5057417;28;19924;-95
2023/05/09 06:29:20;;;;;;;;;;;15.40;99.90;;;;;;5054145;28;19924;-94
2023/05/09 06:31:45;;;;;;;;;;;15.50;99.90;;;;;;5062104;28;20021;-94
2023/05/09 06:34:11;;;;;;;;;;;15.50;99.90;;;;;;5047957;28;19964;-94
2023/05/09 06:36:37;;;;;;;;;;;15.50;99.90;;;;;;5044003;28;19934;-95
2023/05/09 06:39:05;;;;;;;;;;;15.50;99.90;;;;;;5060057;28;19932;-94
2023/05/09 06:41:31;;;;;;;;;;;15.50;99.90;;;;;;5045447;28;19928;-94
2023/05/09 06:43:57;;;;;;;;;;;15.50;99.90;;;;;;5076854;28;19928;-93
2023/05/09 06:46:23;;;;;;;;;;;15.50;99.90;;;;;;5043081;28;20066;-93
2023/05/09 06:48:49;;;;;;;;;;;15.50;99.90;;;;;;5059059;28;19924;-94
2023/05/09 06:51:15;;;;;;;;;;;15.50;99.90;;;;;;5044849;28;19924;-94
2023/05/09 06:53:40;;;;;;;;;;;15.50;99.90;;;;;;5045688;28;19954;-94
2023/05/09 06:56:08;;;;;;;;;;;15.50;99.90;;;;;;5076377;28;19982;-93
2023/05/09 06:58:34;;;;;;;;;;;15.50;99.90;;;;;;5042815;28;19929;-94
2023/05/09 07:00:59;;;;;;;;;;;15.50;99.90;;;;;;5043046;28;20026;-93
2023/05/09 07:03:25;;;;;;;;;;;15.50;99.90;;;;;;5045018;28;19939;-94
2023/05/09 07:05:51;;;;;;;;;;;15.50;99.90;;;;;;5043724;28;19947;-94
2023/05/09 07:08:17;;;;;;;;;;;15.50;99.90;;;;;;5048244;28;20407;-94
2023/05/09 07:10:42;;;;;;;;;;;15.50;99.90;;;;;;5043481;28;19924;-94
2023/05/09 07:13:08;;;;;;;;;;;15.40;99.90;;;;;;5059588;28;20283;-95
2023/05/09 07:15:33;;;;;;;;;;;15.50;99.90;;;;;;5040339;28;19947;-93
2023/05/09 07:17:59;;;;;;;;;;;15.50;99.90;;;;;;5039835;28;19924;-95
2023/05/09 07:20:25;;;;;;;;;;;15.50;99.90;;;;;;5054336;28;19925;-93
2023/05/09 07:22:50;;;;;;;;;;;15.50;99.90;;;;;;5047186;28;19928;-93
2023/05/09 07:25:16;;;;;;;;;;;15.60;99.90;;;;;;5070632;28;19928;-94
2023/05/09 07:27:42;;;;;;;;;;;16.00;99.90;;;;;;5065770;28;19921;-93
2023/05/09 07:30:08;;;;;;;;;;;15.60;99.90;;;;;;5048064;28;20472;-94
2023/05/09 07:32:34;;;;;;;;;;;15.60;99.90;;;;;;5042579;28;20002;-94
2023/05/09 07:34:59;;;;;;;;;;;15.60;99.90;;;;;;5058418;28;19928;-95
2023/05/09 07:37:25;;;;;;;;;;;15.70;99.90;;;;;;5047467;28;19978;-94
2023/05/09 07:39:51;;;;;;;;;;;15.70;99.90;;;;;;5059412;28;19935;-93
2023/05/09 07:42:16;;;;;;;;;;;15.70;99.90;;;;;;5077995;28;19924;-95
2023/05/09 07:44:42;;;;;;;;;;;15.80;99.90;;;;;;5061575;28;19944;-95
2023/05/09 07:47:08;;;;;;;;;;;17.60;99.90;;;;;;5042890;28;19925;-94
2023/05/09 07:49:34;;;;;;;;;;;15.90;99.90;;;;;;5051977;28;19967;-94
2023/05/09 07:52:00;;;;;;;;;;;16.00;99.90;;;;;;5054328;28;19924;-93
2023/05/09 07:54:25;;;;;;;;;;;16.00;99.90;;;;;;5056449;28;19978;-93
2023/05/09 07:56:51;;;;;;;;;;;16.00;99.90;;;;;;5054235;28;19925;-91
2023/05/09 07:59:17;;;;;;;;;;;16.00;99.90;;;;;;5065261;28;20326;-94
2023/05/09 08:01:43;;;;;;;;;;;16.00;99.90;;;;;;5052585;28;19946;-92
2023/05/09 08:04:08;;;;;;;;;;;16.00;99.90;;;;;;5059643;28;19971;-94
2023/05/09 08:06:35;;;;;;;;;;;16.00;99.90;;;;;;5047041;28;19924;-93
2023/05/09 08:09:00;;;;;;;;;;;16.00;99.90;;;;;;5067655;28;19935;-93
2023/05/09 08:11:26;;;;;;;;;;;16.00;99.90;;;;;;5063079;28;19925;-93
2023/05/09 08:13:52;;;;;;;;;;;16.00;99.90;;;;;;5056500;28;20284;-93
2023/05/09 08:16:18;;;;;;;;;;;16.10;99.90;;;;;;5065052;28;20047;-94
2023/05/09 08:18:44;;;;;;;;;;;16.00;99.90;;;;;;5075172;28;19924;-92
2023/05/09 08:21:09;;;;;;;;;;;16.00;99.90;;;;;;5045217;28;19987;-94
2023/05/09 08:23:35;;;;;;;;;;;16.10;99.90;;;;;;5058762;28;19964;-93
2023/05/09 08:26:01;;;;;;;;;;;16.10;99.90;;;;;;5026781;28;20296;-92
2023/05/09 08:28:30;;;;;;;;;;;16.10;99.90;;;;;;5025906;28;20019;-93
2023/05/09 08:30:56;;;;;;;;;;;16.20;99.90;;;;;;5052510;28;19925;-92
2023/05/09 08:33:22;;;;;;;;;;;16.20;99.90;;;;;;5038445;28;19925;-93
2023/05/09 08:35:51;;;;;;;;;;;16.30;99.90;;;;;;5039843;28;19939;-93
2023/05/09 08:38:17;;;;;;;;;;;16.30;99.90;;;;;;5061383;28;20117;-92
2023/05/09 08:40:43;;;;;;;;;;;16.40;99.90;;;;;;5041702;28;19932;-93
2023/05/09 08:43:10;;;;;;;;;;;16.40;99.90;;;;;;5022569;28;19951;-93
2023/05/09 08:45:45;;;;;;;;;;;16.50;99.90;;;;;;5036131;28;19928;-92
2023/05/09 08:48:11;;;;;;;;;;;16.50;99.90;;;;;;5053219;28;19983;-92
2023/05/09 08:50:39;;;;;;;;;;;16.60;99.90;;;;;;5047942;28;19928;-93
2023/05/09 08:53:05;;;;;;;;;;;16.60;99.90;;;;;;5045448;28;19958;-92
2023/05/09 08:55:31;;;;;;;;;;;16.70;99.90;;;;;;5035823;28;20070;-92
2023/05/09 08:57:56;;;;;;;;;;;16.70;99.90;;;;;;5027496;28;20265;-93
2023/05/09 09:00:22;;;;;;;;;;;16.70;99.90;;;;;;5043229;28;19970;-93
2023/05/09 09:02:48;;;;;;;;;;;16.80;99.90;;;;;;5057238;28;20000;-92
2023/05/09 09:05:14;;;;;;;;;;;16.90;99.90;;;;;;5027932;28;19924;-92
2023/05/09 09:07:40;;;;;;;;;;;16.90;99.90;;;;;;5033766;28;19931;-93
2023/05/09 09:10:06;;;;;;;;;;;16.90;99.90;;;;;;5061112;28;20698;-93
2023/05/09 09:12:33;;;;;;;;;;;16.90;99.90;;;;;;5043165;28;19968;-93
2023/05/09 09:15:02;;;;;;;;;;;16.90;99.90;;;;;;5045469;28;19924;-92
2023/05/09 09:17:29;;;;;;;;;;;16.90;99.90;;;;;;5041960;28;20049;-93
2023/05/09 09:19:57;;;;;;;;;;;16.90;99.90;;;;;;5057494;28;19939;-93
2023/05/09 09:22:23;;;;;;;;;;;16.90;99.90;;;;;;5061536;28;19939;-94
2023/05/09 09:24:50;;;;;;;;;;;17.00;99.90;;;;;;5046715;28;19925;-94
2023/05/09 09:27:16;;;;;;;;;;;17.00;99.90;;;;;;5041859;28;19982;-95
2023/05/09 09:29:42;;;;;;;;;;;17.10;99.90;;;;;;5027905;28;19924;-92
2023/05/09 09:32:07;;;;;;;;;;;17.20;99.90;;;;;;5044820;28;19971;-93
2023/05/09 09:34:33;;;;;;;;;;;17.30;99.90;;;;;;5045942;28;19989;-93
2023/05/09 09:36:58;;;;;;;;;;;17.30;99.90;;;;;;5028989;28;20280;-93
2023/05/09 09:39:24;;;;;;;;;;;17.40;99.90;;;;;;5042032;28;20350;-93
2023/05/09 09:41:51;;;;;;;;;;;17.40;99.90;;;;;;5021857;28;20428;-93
2023/05/09 09:44:17;;;;;;;;;;;16.40;99.90;;;;;;5061090;28;19938;-93
2023/05/09 09:46:44;;;;;;;;;;;17.30;99.90;;;;;;5026145;28;19924;-95
2023/05/09 09:49:11;;;;;;;;;;;17.30;99.90;;;;;;5055385;28;19983;-95
2023/05/09 09:51:36;;;;;;;;;;;17.20;99.90;;;;;;5045321;28;19932;-93
2023/05/09 09:54:03;;;;;;;;;;;17.10;99.90;;;;;;5052212;28;19924;-95
2023/05/09 09:56:42;;;;;;;;;;;17.20;99.90;;;;;;5050656;28;19955;-94
2023/05/09 09:59:10;;;;;;;;;;;17.20;99.90;;;;;;5039032;28;20337;-95
2023/05/09 10:01:51;;;;;;;;;;;17.30;99.90;;;;;;5041813;28;19924;-94
2023/05/09 10:04:17;;;;;;;;;;;17.30;99.90;;;;;;5037644;28;19931;-94
2023/05/09 10:06:52;;;;;;;;;;;17.60;99.90;;;;;;5036446;28;19960;-95
2023/05/09 10:09:19;;;;;;;;;;;17.50;99.90;;;;;;5053093;28;19920;-93
2023/05/09 10:11:46;;;;;;;;;;;17.50;99.90;;;;;;5052452;28;19925;-95
2023/05/09 10:14:11;;;;;;;;;;;17.50;99.90;;;;;;5061700;28;20547;-94
2023/05/09 10:16:37;;;;;;;;;;;17.60;99.90;;;;;;5044964;28;19928;-94
2023/05/09 10:19:03;;;;;;;;;;;17.70;99.90;;;;;;5028958;28;19928;-93
2023/05/09 10:21:29;;;;;;;;;;;17.90;99.90;;;;;;5043858;28;20110;-93
2023/05/09 10:23:54;;;;;;;;;;;18.10;99.90;;;;;;5035535;28;19929;-96
2023/05/09 10:26:27;;;;;;;;;;;18.20;99.90;;;;;;5051075;28;19928;-94
2023/05/09 10:28:56;;;;;;;;;;;18.30;99.90;;;;;;5060506;28;19924;-94
2023/05/09 10:31:26;;;;;;;;;;;18.50;99.90;;;;;;5037364;28;19992;-94
2023/05/09 10:33:52;;;;;;;;;;;18.60;99.90;;;;;;5055289;28;20323;-94
2023/05/09 10:36:20;;;;;;;;;;;18.60;99.90;;;;;;5040803;28;19928;-94
2023/05/09 10:38:46;;;;;;;;;;;18.60;99.90;;;;;;5047013;28;19925;-92
2023/05/09 10:41:12;;;;;;;;;;;18.60;99.90;;;;;;5056702;28;19925;-92
2023/05/09 10:43:38;;;;;;;;;;;18.70;99.90;;;;;;5038508;28;19929;-92
2023/05/09 10:46:04;;;;;;;;;;;18.80;99.90;;;;;;5059322;28;19931;-94
2023/05/09 10:48:36;;;;;;;;;;;18.80;99.90;;;;;;5043012;28;19925;-96
2023/05/09 10:51:02;;;;;;;;;;;18.80;99.90;;;;;;5053895;28;19924;-94
2023/05/09 10:53:44;;;;;;;;;;;18.90;99.90;;;;;;5054263;28;19929;-91
2023/05/09 10:56:22;;;;;;;;;;;18.90;99.90;;;;;;5041441;28;19924;-94
2023/05/09 10:58:48;;;;;;;;;;;18.90;99.90;;;;;;5061030;28;20326;-94
2023/05/09 11:01:26;;;;;;;;;;;18.90;99.90;;;;;;5050116;28;19947;-94
2023/05/09 11:03:53;;;;;;;;;;;18.80;99.90;;;;;;5047755;28;19932;-93
2023/05/09 11:06:38;;;;;;;;;;;18.80;99.90;;;;;;5059151;28;19925;-93
2023/05/09 11:09:26;;;;;;;;;;;18.70;99.90;;;;;;5052819;28;19924;-93
2023/05/09 11:11:56;;;;;;;;;;;18.60;99.90;;;;;;5063444;28;19928;-92
2023/05/09 11:14:28;;;;;;;;;;;18.60;99.90;;;;;;5061219;28;19974;-93
2023/05/09 11:16:58;;;;;;;;;;;18.60;99.90;;;;;;5047254;28;19924;-94
2023/05/09 11:19:35;;;;;;;;;;;18.60;99.90;;;;;;5042422;28;19943;-93
2023/05/09 11:22:03;;;;;;;;;;;18.60;99.90;;;;;;5039773;28;19931;-93
2023/05/09 11:24:31;;;;;;;;;;;18.70;99.90;;;;;;5040532;28;19978;-93
2023/05/09 11:26:57;;;;;;;;;;;18.70;99.90;;;;;;5069283;28;20360;-94
2023/05/09 11:29:26;;;;;;;;;;;18.60;99.90;;;;;;5040998;28;19929;-93
2023/05/09 11:32:06;;;;;;;;;;;18.50;99.90;;;;;;5042307;28;19927;-93
2023/05/09 11:34:32;;;;;;;;;;;18.50;99.90;;;;;;5056732;28;20435;-92
2023/05/09 11:37:15;;;;;;;;;;;18.50;99.90;;;;;;5029024;28;19935;-93
2023/05/09 11:39:54;;;;;;;;;;;18.60;99.90;;;;;;5064641;28;19933;-92
2023/05/09 11:42:20;;;;;;;;;;;18.60;99.90;;;;;;5069853;28;20010;-93
2023/05/09 11:44:47;;;;;;;;;;;18.70;99.90;;;;;;5045964;28;20332;-93
2023/05/09 11:47:13;;;;;;;;;;;18.80;99.90;;;;;;5041128;28;19932;-94
2023/05/09 11:49:42;;;;;;;;;;;18.90;99.90;;;;;;5047138;28;19924;-92
2023/05/09 11:52:07;;;;;;;;;;;19.10;99.90;;;;;;5042255;28;19986;-93
2023/05/09 11:54:39;;;;;;;;;;;19.20;99.90;;;;;;5031373;28;19924;-94
2023/05/09 11:57:05;;;;;;;;;;;19.20;99.90;;;;;;5043024;28;20452;-92
2023/05/09 11:59:32;;;;;;;;;;;19.40;99.90;;;;;;5038793;28;19946;-92
2023/05/09 12:02:04;;;;;;;;;;;19.40;99.90;;;;;;5058470;28;19928;-93
2023/05/09 12:04:30;;;;;;;;;;;19.30;99.90;;;;;;5050185;28;20355;-93
2023/05/09 12:07:00;;;;;;;;;;;19.30;99.90;;;;;;5043768;28;19937;-92
2023/05/09 12:09:31;;;;;;;;;;;19.20;99.90;;;;;;5039960;28;19925;-92
2023/05/09 12:11:56;;;;;;;;;;;19.30;99.90;;;;;;5056241;28;19951;-92
2023/05/09 12:14:26;;;;;;;;;;;19.30;99.90;;;;;;5024048;28;19929;-93
2023/05/09 12:16:51;;;;;;;;;;;19.30;99.90;;;;;;5046566;28;19958;-92
2023/05/09 12:19:17;;;;;;;;;;;19.30;99.90;;;;;;5034519;28;19936;-92
2023/05/09 12:21:43;;;;;;;;;;;19.20;99.90;;;;;;5028376;28;19924;-93
2023/05/09 12:24:09;;;;;;;;;;;19.30;99.90;;;;;;5029025;28;20049;-93
2023/05/09 12:26:34;;;;;;;;;;;19.50;99.90;;;;;;5034858;28;20013;-93
2023/05/09 12:29:00;;;;;;;;;;;19.50;99.90;;;;;;5029157;28;20455;-94
2023/05/09 12:31:26;;;;;;;;;;;19.50;99.90;;;;;;5044896;28;20463;-92
2023/05/09 12:33:52;;;;;;;;;;;19.50;99.90;;;;;;5046392;28;19992;-92
2023/05/09 12:36:17;;;;;;;;;;;19.50;99.90;;;;;;5054539;28;20376;-93
2023/05/09 12:38:53;;;;;;;;;;;19.40;99.90;;;;;;5028466;28;20427;-91
2023/05/09 12:41:20;;;;;;;;;;;19.30;99.90;;;;;;5044607;28;19931;-92
2023/05/09 12:43:47;;;;;;;;;;;19.40;99.90;;;;;;5044645;28;19931;-93
2023/05/09 12:46:16;;;;;;;;;;;19.50;99.90;;;;;;5045905;28;19935;-92
2023/05/09 12:48:42;;;;;;;;;;;19.50;99.90;;;;;;5070406;28;19952;-92
2023/05/09 12:51:08;;;;;;;;;;;19.50;99.90;;;;;;5041666;28;19971;-92
2023/05/09 12:53:37;;;;;;;;;;;19.50;99.90;;;;;;5038999;28;19928;-92
2023/05/09 12:56:04;;;;;;;;;;;19.50;99.90;;;;;;5057723;28;19952;-93
2023/05/09 12:58:33;;;;;;;;;;;19.60;99.90;;;;;;5040579;28;19955;-92
2023/05/09 13:00:59;;;;;;;;;;;19.60;99.90;;;;;;5045742;28;19925;-93
2023/05/09 13:03:28;;;;;;;;;;;19.70;99.90;;;;;;5044815;28;19950;-92
2023/05/09 13:05:55;;;;;;;;;;;19.70;99.90;;;;;;5043410;28;19928;-93
2023/05/09 13:08:20;;;;;;;;;;;19.60;99.90;;;;;;5061661;28;19925;-93
2023/05/09 13:10:46;;;;;;;;;;;19.60;99.90;;;;;;5030870;28;19925;-93
2023/05/09 13:13:15;;;;;;;;;;;19.40;99.90;;;;;;5059022;28;19936;-93
2023/05/09 13:15:42;;;;;;;;;;;19.50;99.90;;;;;;5030977;28;20029;-93
2023/05/09 13:18:07;;;;;;;;;;;19.30;99.90;;;;;;5040768;28;19944;-93
2023/05/09 13:20:34;;;;;;;;;;;19.10;99.90;;;;;;5058176;28;19924;-92
2023/05/09 13:23:00;;;;;;;;;;;19.00;99.90;;;;;;5056009;28;19933;-92
2023/05/09 13:25:25;;;;;;;;;;;19.00;99.90;;;;;;5036895;28;19931;-92
2023/05/09 13:27:51;;;;;;;;;;;19.00;99.90;;;;;;5061273;28;20059;-92
2023/05/09 13:30:17;;;;;;;;;;;19.10;99.90;;;;;;5061016;28;19924;-93
2023/05/09 13:32:43;;;;;;;;;;;19.10;99.90;;;;;;5044803;28;19992;-92
2023/05/09 13:35:08;;;;;;;;;;;19.00;99.90;;;;;;5064861;28;20256;-93
2023/05/09 13:37:34;;;;;;;;;;;18.80;99.90;;;;;;5061320;28;19924;-92
2023/05/09 13:40:00;;;;;;;;;;;16.60;99.90;;;;;;5060504;28;19925;-91
2023/05/09 13:42:26;;;;;;;;;;;18.50;99.90;;;;;;5060934;28;20008;-92
2023/05/09 13:44:51;;;;;;;;;;;18.40;99.90;;;;;;5061041;28;20022;-91
2023/05/09 13:47:17;;;;;;;;;;;18.30;99.90;;;;;;5059184;28;19974;-93
2023/05/09 13:49:43;;;;;;;;;;;18.10;99.90;;;;;;5044752;28;19924;-93
2023/05/09 13:52:09;;;;;;;;;;;17.80;99.90;;;;;;5044654;28;19940;-92
2023/05/09 13:54:34;;;;;;;;;;;17.60;99.90;;;;;;5080100;28;19955;-92
2023/05/09 13:57:03;;;;;;;;;;;17.50;99.90;;;;;;5044155;28;19928;-92
2023/05/09 13:59:29;;;;;;;;;;;17.30;99.90;;;;;;5057691;28;19935;-93
2023/05/09 14:01:57;;;;;;;;;;;17.30;99.90;;;;;;5046523;28;19966;-93
2023/05/09 14:04:23;;;;;;;;;;;17.30;99.90;;;;;;5038551;28;19925;-92
2023/05/09 14:06:49;;;;;;;;;;;17.30;99.90;;;;;;5044210;28;19947;-94
2023/05/09 14:09:14;;;;;;;;;;;17.00;99.90;;;;;;5049392;28;19924;-92
2023/05/09 14:11:41;;;;;;;;;;;17.10;99.90;;;;;;5086696;28;19947;-92
2023/05/09 14:14:07;;;;;;;;;;;17.10;99.90;;;;;;5087683;28;19920;-92